createdAt,value
2019-02-04T00:01:19.076Z,13.51
2019-02-04T00:04:09.933Z,13.44
2019-02-04T00:07:00.804Z,13.54
2019-02-04T00:09:51.404Z,13.33
2019-02-04T00:12:42.093Z,13.15
2019-02-04T00:15:33.481Z,13.25
2019-02-04T00:18:23.979Z,13.36
2019-02-04T00:21:14.307Z,13.38
2019-02-04T00:24:04.802Z,13.38
2019-02-04T00:26:55.498Z,13.36
2019-02-04T00:29:45.984Z,13.36
2019-02-04T00:32:36.281Z,13.29
2019-02-04T00:35:26.887Z,13.34
2019-02-04T00:38:17.406Z,13.30
2019-02-04T00:41:08.095Z,13.27
2019-02-04T00:43:59.839Z,13.30
2019-02-04T00:46:52.572Z,13.32
2019-02-04T00:49:43.168Z,13.31
2019-02-04T00:52:33.965Z,13.28
2019-02-04T00:55:24.607Z,13.26
2019-02-04T00:58:14.956Z,13.23
2019-02-04T01:01:05.779Z,13.22
2019-02-04T01:03:56.243Z,13.22
2019-02-04T01:06:46.754Z,13.19
2019-02-04T01:09:37.338Z,13.22
2019-02-04T01:12:27.783Z,13.16
2019-02-04T01:15:18.232Z,13.14
2019-02-04T01:18:09.301Z,13.14
2019-02-04T01:20:59.951Z,13.18
2019-02-04T01:23:50.602Z,13.26
2019-02-04T01:26:41.209Z,13.29
2019-02-04T01:29:31.886Z,13.40
2019-02-04T01:32:22.925Z,13.44
2019-02-04T01:35:13.173Z,13.42
2019-02-04T01:38:03.574Z,13.40
2019-02-04T01:40:54.146Z,13.35
2019-02-04T01:43:44.801Z,13.33
2019-02-04T01:46:35.434Z,13.37
2019-02-04T01:49:25.763Z,13.33
2019-02-04T01:52:16.276Z,13.24
2019-02-04T01:55:08.227Z,13.18
2019-02-04T01:57:58.819Z,13.07
2019-02-04T02:00:49.109Z,13.10
2019-02-04T02:03:39.714Z,13.15
2019-02-04T02:06:30.062Z,13.16
2019-02-04T02:09:26.890Z,13.14
2019-02-04T02:12:17.440Z,13.20
2019-02-04T02:15:08.507Z,13.17
2019-02-04T02:17:58.916Z,13.19
2019-02-04T02:20:50.047Z,13.16
2019-02-04T02:23:40.743Z,13.26
2019-02-04T02:26:31.267Z,13.22
2019-02-04T02:29:21.853Z,13.26
2019-02-04T02:32:12.586Z,13.28
2019-02-04T02:35:03.746Z,13.34
2019-02-04T02:37:54.224Z,13.30
2019-02-04T02:40:45.890Z,13.34
2019-02-04T02:43:36.786Z,13.34
2019-02-04T02:46:27.250Z,13.30
2019-02-04T02:49:17.867Z,13.37
2019-02-04T02:52:07.993Z,13.42
2019-02-04T02:54:58.424Z,13.39
2019-02-04T02:57:49.066Z,13.32
2019-02-04T03:00:39.964Z,13.28
2019-02-04T03:03:30.480Z,13.29
2019-02-04T03:06:21.727Z,13.28
2019-02-04T03:09:12.153Z,13.22
2019-02-04T03:12:05.265Z,13.29
2019-02-04T03:14:55.675Z,13.30
2019-02-04T03:17:51.973Z,13.34
2019-02-04T03:20:38.078Z,13.30
2019-02-04T03:23:29.173Z,13.34
2019-02-04T03:26:19.680Z,13.36
2019-02-04T03:29:10.736Z,13.32
2019-02-04T03:32:01.229Z,13.24
2019-02-04T03:34:51.866Z,13.20
2019-02-04T03:37:44.298Z,13.26
2019-02-04T03:40:34.867Z,13.39
2019-02-04T03:43:25.113Z,13.48
2019-02-04T03:46:15.754Z,13.56
2019-02-04T03:49:06.486Z,13.60
2019-02-04T03:51:57.217Z,13.63
2019-02-04T03:54:47.834Z,13.68
2019-02-04T03:57:38.263Z,13.63
2019-02-04T04:00:31.045Z,13.55
2019-02-04T04:03:21.395Z,13.53
2019-02-04T04:06:11.995Z,13.56
2019-02-04T04:09:02.622Z,13.60
2019-02-04T04:11:54.084Z,13.46
2019-02-04T04:14:44.837Z,13.33
2019-02-04T04:17:35.369Z,13.29
2019-02-04T04:20:26.090Z,13.21
2019-02-04T04:23:16.547Z,13.37
2019-02-04T04:26:07.213Z,13.46
2019-02-04T04:28:57.665Z,13.43
2019-02-04T04:31:48.125Z,13.48
2019-02-04T04:34:38.444Z,13.45
2019-02-04T04:37:28.721Z,13.57
2019-02-04T04:40:20.259Z,13.49
2019-02-04T04:43:10.890Z,13.44
2019-02-04T04:46:01.466Z,13.44
2019-02-04T04:48:51.823Z,13.34
2019-02-04T04:51:42.153Z,13.34
2019-02-04T04:54:32.678Z,13.48
2019-02-04T04:57:23.638Z,13.41
2019-02-04T05:00:16.815Z,13.39
2019-02-04T05:03:07.557Z,13.44
2019-02-04T05:05:57.939Z,13.38
2019-02-04T05:08:48.792Z,13.49
2019-02-04T05:11:39.427Z,13.42
2019-02-04T05:14:30.399Z,13.45
2019-02-04T05:17:20.880Z,13.41
2019-02-04T05:20:11.900Z,13.42
2019-02-04T05:23:06.267Z,13.50
2019-02-04T05:25:58.142Z,13.52
2019-02-04T05:28:48.875Z,13.42
2019-02-04T05:31:42.491Z,13.48
2019-02-04T05:34:33.174Z,13.51
2019-02-04T05:37:23.640Z,13.52
2019-02-04T05:40:15.073Z,13.51
2019-02-04T05:43:05.730Z,13.41
2019-02-04T05:45:56.107Z,13.49
2019-02-04T05:48:49.319Z,13.52
2019-02-04T05:51:38.490Z,13.53
2019-02-04T05:54:30.975Z,13.56
2019-02-04T05:57:21.466Z,13.57
2019-02-04T06:00:16.451Z,13.59
2019-02-04T06:03:07.032Z,13.59
2019-02-04T06:05:57.548Z,13.68
2019-02-04T06:08:48.077Z,13.40
2019-02-04T06:11:38.635Z,13.58
2019-02-04T06:14:29.129Z,13.67
2019-02-04T06:17:19.757Z,13.63
2019-02-04T06:20:13.158Z,13.61
2019-02-04T06:23:05.795Z,13.55
2019-02-04T06:25:56.217Z,13.60
2019-02-04T06:28:46.831Z,13.65
2019-02-04T06:31:37.528Z,13.84
2019-02-04T06:34:28.269Z,13.87
2019-02-04T06:37:19.288Z,14.01
2019-02-04T06:40:11.016Z,13.93
2019-02-04T06:43:02.014Z,13.94
2019-02-04T06:45:52.395Z,13.94
2019-02-04T06:48:43.269Z,13.99
2019-02-04T06:51:33.755Z,13.77
2019-02-04T06:54:23.966Z,13.79
2019-02-04T06:57:14.261Z,13.75
2019-02-04T07:00:04.986Z,13.84
2019-02-04T07:02:55.294Z,13.70
2019-02-04T07:05:46.397Z,13.75
2019-02-04T07:08:36.638Z,13.82
2019-02-04T07:11:27.441Z,13.78
2019-02-04T07:14:18.045Z,13.76
2019-02-04T07:17:09.274Z,13.84
2019-02-04T07:19:59.768Z,13.78
2019-02-04T07:22:50.213Z,13.93
2019-02-04T07:25:40.735Z,13.92
2019-02-04T07:28:31.072Z,14.01
2019-02-04T07:31:21.371Z,14.09
2019-02-04T07:34:11.932Z,14.08
2019-02-04T07:37:02.151Z,14.06
2019-02-04T07:39:52.769Z,14.07
2019-02-04T07:42:43.203Z,14.09
2019-02-04T07:45:33.738Z,14.28
2019-02-04T07:48:24.580Z,14.52
2019-02-04T07:51:15.398Z,14.62
2019-02-04T07:54:05.767Z,14.89
2019-02-04T07:56:56.048Z,15.26
2019-02-04T07:59:46.250Z,15.76
2019-02-04T08:02:36.854Z,16.20
2019-02-04T08:05:27.438Z,15.87
2019-02-04T08:08:19.473Z,15.51
2019-02-04T08:11:09.901Z,15.46
2019-02-04T08:14:00.341Z,15.23
2019-02-04T08:16:51.226Z,15.25
2019-02-04T08:19:46.994Z,14.92
2019-02-04T08:22:33.718Z,14.92
2019-02-04T08:25:25.937Z,14.87
2019-02-04T08:28:16.666Z,14.89
2019-02-04T08:31:07.561Z,14.97
2019-02-04T08:33:59.466Z,14.87
2019-02-04T08:36:49.876Z,14.86
2019-02-04T08:39:40.409Z,14.99
2019-02-04T08:42:31.022Z,14.96
2019-02-04T08:45:21.326Z,15.12
2019-02-04T08:48:12.256Z,15.20
2019-02-04T08:51:02.537Z,15.00
2019-02-04T08:53:53.251Z,14.97
2019-02-04T08:56:43.478Z,15.03
2019-02-04T08:59:33.955Z,15.00
2019-02-04T09:02:24.405Z,15.03
2019-02-04T09:05:15.511Z,15.14
2019-02-04T09:08:06.005Z,15.20
2019-02-04T09:10:58.134Z,15.29
2019-02-04T09:13:48.731Z,15.16
2019-02-04T09:16:39.654Z,15.16
2019-02-04T09:19:30.135Z,15.14
2019-02-04T09:22:20.786Z,15.38
2019-02-04T09:25:12.720Z,15.41
2019-02-04T09:28:03.287Z,15.30
2019-02-04T09:30:53.849Z,15.34
2019-02-04T09:33:44.240Z,15.30
2019-02-04T09:36:34.878Z,15.23
2019-02-04T09:39:25.248Z,15.08
2019-02-04T09:42:15.560Z,15.22
2019-02-04T09:45:06.689Z,15.19
2019-02-04T09:47:57.425Z,15.23
2019-02-04T09:50:49.398Z,15.35
2019-02-04T09:53:39.937Z,15.41
2019-02-04T09:56:30.403Z,15.68
2019-02-04T09:59:20.802Z,15.58
2019-02-04T10:02:11.299Z,15.53
2019-02-04T10:05:01.593Z,15.59
2019-02-04T10:07:52.058Z,15.65
2019-02-04T10:10:42.605Z,15.60
2019-02-04T10:13:32.886Z,15.62
2019-02-04T10:16:23.846Z,15.50
2019-02-04T10:19:14.318Z,15.57
2019-02-04T10:22:04.890Z,15.70
2019-02-04T10:24:55.649Z,15.61
2019-02-04T10:27:45.997Z,15.56
2019-02-04T10:30:36.717Z,15.69
2019-02-04T10:33:27.319Z,15.64
2019-02-04T10:36:17.607Z,15.72
2019-02-04T10:39:09.632Z,15.83
2019-02-04T10:42:00.222Z,15.93
2019-02-04T10:44:50.482Z,15.85
2019-02-04T10:47:41.091Z,15.76
2019-02-04T10:50:45.070Z,15.68
2019-02-04T10:53:25.881Z,15.54
2019-02-04T10:56:16.534Z,15.51
2019-02-04T10:59:07.219Z,15.39
2019-02-04T11:01:57.652Z,15.32
2019-02-04T11:04:48.232Z,15.48
2019-02-04T11:07:38.660Z,15.47
2019-02-04T11:10:34.348Z,15.62
2019-02-04T11:13:27.742Z,15.60
2019-02-04T11:16:18.379Z,15.62
2019-02-04T11:19:09.045Z,15.76
2019-02-04T11:21:59.904Z,15.75
2019-02-04T11:24:50.516Z,15.70
2019-02-04T11:27:41.278Z,15.65
2019-02-04T11:30:46.329Z,15.71
2019-02-04T11:33:36.911Z,15.85
2019-02-04T11:36:27.519Z,15.69
2019-02-04T11:39:18.259Z,15.66
2019-02-04T11:42:08.461Z,15.56
2019-02-04T11:44:59.025Z,15.49
2019-02-04T11:47:49.483Z,15.62
2019-02-04T11:50:40.494Z,15.58
2019-02-04T11:53:33.125Z,15.63
2019-02-04T11:56:22.772Z,15.63
2019-02-04T11:59:13.287Z,15.78
2019-02-04T12:02:04.034Z,15.65
2019-02-04T12:04:54.452Z,15.85
2019-02-04T12:07:45.055Z,16.01
2019-02-04T12:10:41.356Z,16.27
2019-02-04T12:13:31.808Z,16.43
2019-02-04T12:16:22.497Z,16.43
2019-02-04T12:19:13.247Z,16.42
2019-02-04T12:22:03.500Z,16.22
2019-02-04T12:24:54.293Z,16.36
2019-02-04T12:27:44.729Z,16.04
2019-02-04T12:30:37.502Z,15.75
2019-02-04T12:33:27.965Z,15.67
2019-02-04T12:36:18.663Z,15.64
2019-02-04T12:39:16.826Z,15.57
2019-02-04T12:42:07.415Z,15.55
2019-02-04T12:44:57.878Z,15.56
2019-02-04T12:47:48.539Z,15.34
2019-02-04T12:50:38.943Z,15.52
2019-02-04T12:53:29.483Z,15.50
2019-02-04T12:56:19.958Z,15.50
2019-02-04T12:59:10.403Z,15.59
2019-02-04T13:02:01.041Z,15.50
2019-02-04T13:04:51.587Z,15.54
2019-02-04T13:07:42.193Z,15.51
2019-02-04T13:10:33.129Z,15.62
2019-02-04T13:13:25.808Z,15.49
2019-02-04T13:16:16.313Z,15.58
2019-02-04T13:19:06.664Z,15.57
2019-02-04T13:21:57.230Z,15.60
2019-02-04T13:24:47.743Z,15.34
2019-02-04T13:27:38.782Z,15.60
2019-02-04T13:30:29.363Z,15.58
2019-02-04T13:33:19.682Z,15.52
2019-02-04T13:36:10.083Z,15.46
2019-02-04T13:39:01.592Z,15.54
2019-02-04T13:41:53.314Z,15.44
2019-02-04T13:44:43.868Z,15.51
2019-02-04T13:47:34.445Z,15.58
2019-02-04T13:50:24.817Z,15.52
2019-02-04T13:53:16.505Z,15.49
2019-02-04T13:56:07.089Z,15.31
2019-02-04T13:58:57.777Z,15.33
2019-02-04T14:01:48.174Z,15.35
2019-02-04T14:04:38.969Z,15.43
2019-02-04T14:07:29.480Z,15.30
2019-02-04T14:10:22.995Z,15.35
2019-02-04T14:13:13.520Z,15.36
2019-02-04T14:16:03.964Z,15.24
2019-02-04T14:18:54.278Z,15.28
2019-02-04T14:21:45.876Z,15.26
2019-02-04T14:24:36.285Z,15.24
2019-02-04T14:27:27.179Z,15.27
2019-02-04T14:30:20.205Z,15.22
2019-02-04T14:33:10.855Z,15.29
2019-02-04T14:36:01.427Z,15.24
2019-02-04T14:38:51.710Z,15.25
2019-02-04T14:41:42.416Z,15.25
2019-02-04T14:45:32.309Z,15.19
2019-02-04T14:48:59.369Z,15.14
2019-02-04T14:52:21.741Z,15.14
2019-02-04T14:55:55.637Z,14.99
2019-02-04T14:59:05.591Z,14.85
2019-02-04T15:02:37.259Z,14.76
2019-02-04T15:06:00.484Z,14.80
2019-02-04T15:09:27.901Z,14.78
2019-02-04T15:12:50.887Z,14.80
2019-02-04T15:16:34.277Z,14.78
2019-02-04T15:20:06.247Z,14.73
2019-02-04T15:23:21.518Z,14.62
2019-02-04T15:26:48.867Z,14.55
2019-02-04T15:29:59.236Z,14.49
2019-02-04T15:33:09.768Z,14.42
2019-02-04T15:36:46.371Z,14.38
2019-02-04T15:40:11.321Z,14.34
2019-02-04T15:43:52.480Z,14.37
2019-02-04T15:46:48.214Z,14.21
2019-02-04T15:50:27.009Z,14.13
2019-02-04T15:53:17.620Z,14.08
2019-02-04T15:56:09.047Z,14.06
2019-02-04T15:58:59.589Z,13.96
2019-02-04T16:01:49.918Z,13.99
2019-02-04T16:04:40.468Z,13.99
2019-02-04T16:07:30.864Z,14.01
2019-02-04T16:10:21.647Z,13.93
2019-02-04T16:13:11.975Z,13.97
2019-02-04T16:16:02.964Z,14.04
2019-02-04T16:18:53.539Z,13.95
2019-02-04T16:21:44.117Z,13.91
2019-02-04T16:24:34.643Z,13.95
2019-02-04T16:27:25.240Z,13.88
2019-02-04T16:30:18.230Z,13.82
2019-02-04T16:33:08.569Z,13.73
2019-02-04T16:35:58.935Z,13.79
2019-02-04T16:38:49.546Z,13.75
2019-02-04T16:41:40.261Z,13.73
2019-02-04T16:44:30.509Z,13.65
2019-02-04T16:47:20.728Z,13.52
2019-02-04T16:50:14.732Z,13.63
2019-02-04T16:53:10.559Z,13.65
2019-02-04T16:55:57.516Z,13.57
2019-02-04T16:58:47.892Z,13.51
2019-02-04T17:01:38.357Z,13.50
2019-02-04T17:04:28.813Z,13.55
2019-02-04T17:07:20.349Z,13.55
2019-02-04T17:10:15.627Z,13.56
2019-02-04T17:13:05.899Z,13.65
2019-02-04T17:15:56.487Z,13.66
2019-02-04T17:18:46.843Z,13.62
2019-02-04T17:21:37.089Z,13.62
2019-02-04T17:24:27.731Z,13.63
2019-02-04T17:27:18.792Z,13.55
2019-02-04T17:30:12.524Z,13.61
2019-02-04T17:33:03.462Z,13.60
2019-02-04T17:35:54.237Z,13.62
2019-02-04T17:38:45.088Z,13.55
2019-02-04T17:41:35.688Z,13.61
2019-02-04T17:44:26.866Z,13.62
2019-02-04T17:47:17.305Z,13.63
2019-02-04T17:50:08.662Z,13.50
2019-02-04T17:52:59.192Z,13.42
2019-02-04T17:55:49.599Z,13.47
2019-02-04T17:58:40.099Z,13.54
2019-02-04T18:01:30.472Z,13.55
2019-02-04T18:04:21.031Z,13.60
2019-02-04T18:07:11.534Z,13.64
2019-02-04T18:10:02.135Z,13.67
2019-02-04T18:12:53.133Z,13.70
2019-02-04T18:15:43.523Z,13.71
2019-02-04T18:18:34.257Z,13.70
2019-02-04T18:21:24.650Z,13.80
2019-02-04T18:24:15.192Z,13.72
2019-02-04T18:27:05.429Z,13.77
2019-02-04T18:29:56.046Z,13.49
2019-02-04T18:32:46.697Z,13.60
2019-02-04T18:35:37.741Z,13.68
2019-02-04T18:38:28.319Z,13.68
2019-02-04T18:41:19.160Z,13.64
2019-02-04T18:44:09.676Z,13.58
2019-02-04T18:47:00.383Z,13.46
2019-02-04T18:49:51.091Z,13.56
2019-02-04T18:52:41.882Z,13.52
2019-02-04T18:55:33.430Z,13.56
2019-02-04T18:58:23.990Z,13.67
2019-02-04T19:01:14.601Z,13.75
2019-02-04T19:04:04.877Z,13.82
2019-02-04T19:06:55.151Z,13.84
2019-02-04T19:09:46.471Z,13.87
2019-02-04T19:12:38.017Z,13.93
2019-02-04T19:15:28.484Z,13.88
2019-02-04T19:18:19.469Z,13.87
2019-02-04T19:21:09.845Z,13.73
2019-02-04T19:24:09.365Z,13.71
2019-02-04T19:26:54.073Z,13.75
2019-02-04T19:29:44.478Z,13.74
2019-02-04T19:32:35.152Z,13.69
2019-02-04T19:35:25.449Z,13.66
2019-02-04T19:38:15.859Z,13.53
2019-02-04T19:41:06.413Z,13.46
2019-02-04T19:43:56.882Z,13.44
2019-02-04T19:46:47.463Z,13.31
2019-02-04T19:49:38.140Z,13.23
2019-02-04T19:52:28.686Z,13.05
2019-02-04T19:55:19.195Z,12.92
2019-02-04T19:58:09.566Z,12.95
2019-02-04T20:00:59.784Z,13.10
2019-02-04T20:03:50.212Z,13.19
2019-02-04T20:06:40.648Z,13.17
2019-02-04T20:09:31.083Z,13.16
2019-02-04T20:12:21.789Z,13.20
2019-02-04T20:15:15.951Z,13.22
2019-02-04T20:18:06.927Z,13.16
2019-02-04T20:20:57.533Z,13.29
2019-02-04T20:23:48.065Z,13.26
2019-02-04T20:26:38.461Z,13.24
2019-02-04T20:29:28.819Z,13.24
2019-02-04T20:32:19.287Z,13.23
2019-02-04T20:35:09.649Z,13.18
2019-02-04T20:38:00.463Z,13.17
2019-02-04T20:40:51.134Z,13.12
2019-02-04T20:43:41.602Z,13.03
2019-02-04T20:46:31.957Z,13.06
2019-02-04T20:49:22.686Z,12.95
2019-02-04T20:52:14.534Z,12.96
2019-02-04T20:55:05.409Z,12.92
2019-02-04T20:57:56.118Z,12.95
2019-02-04T21:00:46.483Z,12.94
2019-02-04T21:03:36.609Z,12.79
2019-02-04T21:06:27.266Z,12.84
2019-02-04T21:09:17.851Z,12.90
2019-02-04T21:12:08.655Z,12.77
2019-02-04T21:14:59.376Z,12.74
2019-02-04T21:17:51.180Z,12.78
2019-02-04T21:20:41.881Z,12.69
2019-02-04T21:23:32.152Z,12.82
2019-02-04T21:26:22.509Z,12.78
2019-02-04T21:29:13.073Z,12.73
2019-02-04T21:32:03.562Z,12.75
2019-02-04T21:34:54.900Z,12.74
2019-02-04T21:37:45.426Z,12.86
2019-02-04T21:40:35.923Z,12.83
2019-02-04T21:43:26.381Z,12.82
2019-02-04T21:46:16.865Z,12.75
2019-02-04T21:49:07.187Z,12.71
2019-02-04T21:51:57.519Z,12.70
2019-02-04T21:54:47.834Z,12.72
2019-02-04T21:57:38.330Z,12.68
2019-02-04T22:00:34.475Z,12.70
2019-02-04T22:03:24.727Z,12.68
2019-02-04T22:06:14.926Z,12.66
2019-02-04T22:09:07.519Z,12.56
2019-02-04T22:11:58.068Z,12.42
2019-02-04T22:14:48.671Z,12.47
2019-02-04T22:17:39.872Z,12.39
2019-02-04T22:20:30.702Z,12.43
2019-02-04T22:23:21.152Z,12.27
2019-02-04T22:26:11.990Z,12.36
2019-02-04T22:29:02.457Z,12.34
2019-02-04T22:31:52.988Z,12.40
2019-02-04T22:34:45.692Z,12.45
2019-02-04T22:37:35.933Z,12.46
2019-02-04T22:40:30.364Z,12.44
2019-02-04T22:43:20.878Z,12.46
2019-02-04T22:46:11.132Z,12.53
2019-02-04T22:49:01.552Z,12.46
2019-02-04T22:51:52.070Z,12.40
2019-02-04T22:54:42.229Z,12.41
2019-02-04T22:57:32.567Z,12.45
2019-02-04T23:00:57.541Z,12.42
2019-02-04T23:03:47.856Z,12.41
2019-02-04T23:06:38.321Z,12.48
2019-02-04T23:09:29.154Z,12.27
2019-02-04T23:12:19.816Z,12.35
2019-02-04T23:15:10.361Z,12.28
2019-02-04T23:18:00.766Z,12.36
2019-02-04T23:20:51.570Z,12.39
2019-02-04T23:23:41.977Z,12.37
2019-02-04T23:26:32.698Z,12.38
2019-02-04T23:29:23.188Z,12.29
2019-02-04T23:32:13.877Z,12.31
2019-02-04T23:35:04.082Z,12.26
2019-02-04T23:37:54.575Z,12.20
2019-02-04T23:40:44.941Z,12.18
2019-02-04T23:43:35.324Z,12.13
2019-02-04T23:46:25.852Z,12.16
2019-02-04T23:49:16.408Z,12.09
2019-02-04T23:52:06.534Z,12.09
2019-02-04T23:54:56.974Z,12.17
2019-02-04T23:57:47.400Z,12.10
